Time;durP1;ratioP1;P1;durP2;ratioP2;P2;SDS_P1;SDS_P2;PMS_P1;PMS_P2;Temp;Humidity;BMP_temperature;BMP_pressure;BME280_temperature;BME280_humidity;BME280_pressure;Samples;Min_cycle;Max_cycle;Signal;HPM_P1;HPM_P2
2022/09/25 00:01:26;;;;;;;4.50;3.73;;;17.10;59.70;;;;;;4962926;28;20502;-67
2022/09/25 00:03:54;;;;;;;3.73;2.90;;;17.10;59.70;;;;;;4934901;28;20993;-70
2022/09/25 00:06:26;;;;;;;3.77;3.47;;;17.10;59.70;;;;;;4952982;28;20891;-69
2022/09/25 00:08:55;;;;;;;3.30;3.00;;;17.10;59.70;;;;;;4958996;28;20478;-69
2022/09/25 00:11:26;;;;;;;3.53;2.80;;;17.10;59.70;;;;;;4943942;28;20442;-67
2022/09/25 00:13:55;;;;;;;3.57;3.27;;;17.10;59.60;;;;;;4945070;28;20470;-69
2022/09/25 00:16:26;;;;;;;4.07;3.67;;;17.10;59.80;;;;;;4953605;28;20471;-68
2022/09/25 00:21:43;;;;;;;3.73;3.43;;;17.10;59.80;;;;;;4947515;28;20526;-69
2022/09/25 00:24:12;;;;;;;3.30;3.00;;;17.10;59.80;;;;;;4965299;28;20447;-70
2022/09/25 00:26:42;;;;;;;3.37;3.00;;;17.10;59.70;;;;;;4944473;28;20517;-69
2022/09/25 00:29:17;;;;;;;4.03;3.53;;;17.10;59.70;;;;;;4955951;28;20491;-68
2022/09/25 00:31:45;;;;;;;3.43;3.13;;;17.00;59.90;;;;;;4947996;28;20526;-69
2022/09/25 00:34:14;;;;;;;3.93;3.03;;;17.00;59.60;;;;;;4954719;28;20451;-69
2022/09/25 00:36:43;;;;;;;3.20;2.90;;;17.10;59.70;;;;;;4957949;28;20924;-69
2022/09/25 00:39:12;;;;;;;3.53;2.70;;;17.10;59.70;;;;;;4956432;28;20443;-70
2022/09/25 00:41:40;;;;;;;3.60;3.30;;;17.00;59.60;;;;;;4959118;28;21041;-70
2022/09/25 00:44:42;;;;;;;6.37;5.77;;;17.10;59.60;;;;;;4946957;28;20482;-70
2022/09/25 00:47:13;;;;;;;4.13;3.73;;;17.10;60.20;;;;;;4957005;28;20454;-69
2022/09/25 00:49:42;;;;;;;3.93;3.27;;;17.00;59.70;;;;;;4960892;28;20787;-70
2022/09/25 00:52:14;;;;;;;3.90;3.50;;;17.10;59.70;;;;;;4957605;28;20487;-67
2022/09/25 00:54:47;;;;;;;2.80;2.50;;;17.10;59.70;;;;;;4951491;28;20509;-69
2022/09/25 00:57:18;;;;;;;3.83;3.43;;;17.00;60.90;;;;;;4954015;28;20475;-69
2022/09/25 00:59:52;;;;;;;4.10;3.70;;;17.00;59.70;;;;;;4954098;28;20470;-69
2022/09/25 01:02:25;;;;;;;3.70;3.40;;;17.00;59.80;;;;;;4952542;28;20501;-70
2022/09/25 01:04:56;;;;;;;3.53;3.23;;;17.00;59.60;;;;;;4938603;28;20473;-69
2022/09/25 01:07:26;;;;;;;4.97;4.47;;;17.00;59.70;;;;;;4953584;28;20489;-68
2022/09/25 01:09:58;;;;;;;6.43;3.17;;;17.00;59.80;;;;;;4955646;28;20466;-70
2022/09/25 01:12:26;;;;;;;3.87;3.20;;;17.00;59.70;;;;;;4972216;28;20443;-68
2022/09/25 01:14:56;;;;;;;7.33;4.60;;;17.00;59.70;;;;;;4968989;28;21036;-70
2022/09/25 01:17:28;;;;;;;3.87;3.57;;;17.00;60.00;;;;;;4946281;28;20434;-69
2022/09/25 01:20:14;;;;;;;4.50;3.83;;;17.00;59.80;;;;;;4959177;28;20478;-69
2022/09/25 01:22:57;;;;;;;4.03;3.00;;;17.00;59.70;;;;;;4952894;28;20506;-70
2022/09/25 01:25:39;;;;;;;5.07;4.57;;;17.00;60.00;;;;;;4962815;28;20501;-69
2022/09/25 01:28:20;;;;;;;3.70;3.40;;;17.00;59.90;;;;;;4943945;29;20436;-69
2022/09/25 01:30:55;;;;;;;4.30;4.00;;;17.00;59.70;;;;;;4969017;28;20479;-69
2022/09/25 01:33:28;;;;;;;5.20;4.37;;;17.00;59.80;;;;;;4959563;28;20450;-69
2022/09/25 01:36:02;;;;;;;5.27;4.00;;;17.00;59.90;;;;;;4942252;28;20510;-69
2022/09/25 01:38:35;;;;;;;3.80;3.50;;;17.00;59.90;;;;;;4943394;28;20451;-69
2022/09/25 01:41:09;;;;;;;3.67;3.20;;;17.00;59.70;;;;;;4951096;29;20455;-70
2022/09/25 01:43:42;;;;;;;5.00;4.50;;;17.00;59.80;;;;;;4953220;28;20935;-69
2022/09/25 01:46:16;;;;;;;4.20;3.80;;;17.00;60.30;;;;;;4968624;28;20470;-69
2022/09/25 01:48:48;;;;;;;3.47;3.27;;;17.00;60.00;;;;;;4967845;28;20463;-68
2022/09/25 01:51:21;;;;;;;3.57;3.27;;;17.00;59.70;;;;;;4942212;28;20486;-68
2022/09/25 01:53:54;;;;;;;3.80;3.00;;;17.00;60.00;;;;;;4963348;28;20447;-69
2022/09/25 01:56:31;;;;;;;3.80;3.33;;;17.00;59.80;;;;;;4954278;28;20462;-70
2022/09/25 01:59:05;;;;;;;4.00;3.20;;;17.00;59.90;;;;;;4953775;28;20843;-68
2022/09/25 02:01:39;;;;;;;3.63;3.33;;;17.00;59.80;;;;;;4956733;28;20491;-69
2022/09/25 02:04:12;;;;;;;3.10;2.80;;;17.00;59.90;;;;;;4959095;28;20473;-68
2022/09/25 02:06:45;;;;;;;4.87;4.20;;;17.00;59.70;;;;;;4956825;28;20489;-69
2022/09/25 02:09:17;;;;;;;3.50;3.20;;;17.00;60.00;;;;;;4954067;28;20471;-69
2022/09/25 02:11:51;;;;;;;3.77;3.40;;;17.00;59.80;;;;;;4957170;28;20471;-69
2022/09/25 02:14:22;;;;;;;3.10;2.90;;;17.00;59.70;;;;;;4953057;28;20497;-68
2022/09/25 02:16:55;;;;;;;4.20;3.77;;;17.00;59.60;;;;;;4954768;28;21076;-69
2022/09/25 02:22:18;;;;;;;3.93;3.00;;;17.00;59.70;;;;;;4973571;23;20495;-73
2022/09/25 02:24:53;;;;;;;3.40;3.10;;;17.00;59.70;;;;;;5020763;28;20468;-72
2022/09/25 02:27:28;;;;;;;3.60;3.30;;;17.00;59.60;;;;;;5003847;28;20438;-72
2022/09/25 02:29:57;;;;;;;3.33;3.00;;;17.00;59.70;;;;;;4994009;28;20468;-72
2022/09/25 02:32:30;;;;;;;3.13;2.83;;;17.00;59.70;;;;;;4993830;28;20442;-72
2022/09/25 02:35:00;;;;;;;3.47;3.17;;;17.00;59.60;;;;;;4986897;28;20951;-72
2022/09/25 02:37:29;;;;;;;3.50;3.13;;;17.00;59.80;;;;;;4984796;28;20445;-73
2022/09/25 02:40:00;;;;;;;3.30;3.00;;;17.00;59.80;;;;;;4989127;28;20482;-72
2022/09/25 02:42:38;;;;;;;3.53;3.23;;;17.00;59.90;;;;;;4958888;28;20685;-72
2022/09/25 02:45:18;;;;;;;4.67;3.70;;;16.90;59.80;;;;;;4987848;28;20987;-72
2022/09/25 02:47:57;;;;;;;4.73;3.80;;;16.90;59.80;;;;;;4998170;28;20871;-72
2022/09/25 02:50:29;;;;;;;4.93;3.37;;;17.00;60.00;;;;;;4994425;28;20515;-72
2022/09/25 02:53:05;;;;;;;3.60;3.17;;;17.00;59.80;;;;;;4992463;28;20449;-72
2022/09/25 02:55:39;;;;;;;3.20;2.90;;;16.90;59.70;;;;;;4985385;28;20808;-72
2022/09/25 02:58:14;;;;;;;2.83;2.63;;;17.00;59.70;;;;;;4993339;28;20440;-72
2022/09/25 03:00:47;;;;;;;4.00;3.60;;;16.90;59.60;;;;;;4993833;28;20471;-72
2022/09/25 03:03:19;;;;;;;5.80;3.27;;;16.90;59.70;;;;;;4990857;28;20476;-72
2022/09/25 03:05:49;;;;;;;3.03;2.83;;;16.90;59.70;;;;;;5008992;28;20496;-73
2022/09/25 03:08:37;;;;;;;4.23;2.80;;;16.90;59.60;;;;;;4991379;28;20776;-72
2022/09/25 03:11:06;;;;;;;3.20;2.60;;;16.90;59.90;;;;;;4986097;28;20457;-72
2022/09/25 03:13:35;;;;;;;2.80;2.60;;;16.90;59.60;;;;;;4998174;28;20959;-72
2022/09/25 03:16:08;;;;;;;3.60;2.83;;;16.90;59.60;;;;;;4981934;28;20462;-72
2022/09/25 03:18:38;;;;;;;3.13;2.83;;;16.90;59.80;;;;;;4989238;28;20855;-73
2022/09/25 03:21:06;;;;;;;3.23;2.80;;;16.90;59.70;;;;;;4967743;28;20473;-73
2022/09/25 03:23:35;;;;;;;4.70;3.20;;;16.90;59.70;;;;;;4977388;28;20474;-73
2022/09/25 03:26:04;;;;;;;2.63;2.10;;;16.90;60.00;;;;;;4990898;28;20980;-72
2022/09/25 03:28:33;;;;;;;3.57;2.60;;;16.90;60.00;;;;;;4989748;28;20430;-73
2022/09/25 03:31:03;;;;;;;3.20;2.93;;;16.90;59.80;;;;;;5008299;28;20454;-73
2022/09/25 03:33:36;;;;;;;2.60;2.37;;;16.90;59.90;;;;;;4983942;28;20440;-72
2022/09/25 03:36:09;;;;;;;2.97;2.77;;;16.90;60.00;;;;;;4990346;28;20456;-73
2022/09/25 03:38:40;;;;;;;3.70;3.30;;;16.90;60.00;;;;;;4960225;28;20468;-73
2022/09/25 03:41:10;;;;;;;7.43;2.73;;;16.90;59.90;;;;;;4983218;28;20437;-73
2022/09/25 03:43:40;;;;;;;2.23;2.03;;;16.90;60.00;;;;;;4990072;28;20511;-73
2022/09/25 03:46:10;;;;;;;2.47;2.27;;;16.90;60.00;;;;;;4977438;28;20457;-71
2022/09/25 03:48:40;;;;;;;3.17;2.87;;;16.90;60.00;;;;;;4991979;28;20456;-72
2022/09/25 03:51:11;;;;;;;2.70;2.50;;;16.90;60.00;;;;;;4983012;28;20967;-73
2022/09/25 03:53:40;;;;;;;3.30;3.00;;;16.90;60.00;;;;;;4987997;28;20448;-72
2022/09/25 03:56:11;;;;;;;3.03;2.73;;;16.90;59.80;;;;;;4976351;28;20556;-73
2022/09/25 03:58:40;;;;;;;2.87;2.20;;;16.90;59.80;;;;;;4989621;28;20448;-73
2022/09/25 04:01:09;;;;;;;3.70;3.00;;;16.90;59.80;;;;;;4988890;28;20447;-73
2022/09/25 04:03:39;;;;;;;3.10;2.67;;;16.90;59.90;;;;;;4983051;28;20899;-73
2022/09/25 04:06:10;;;;;;;4.03;3.63;;;16.90;59.90;;;;;;4988274;28;20556;-73
2022/09/25 04:08:38;;;;;;;3.33;3.03;;;16.90;59.90;;;;;;4988983;28;20459;-73
2022/09/25 04:11:06;;;;;;;2.73;2.40;;;16.90;59.90;;;;;;4990932;28;20429;-73
2022/09/25 04:13:36;;;;;;;3.17;2.73;;;16.90;59.70;;;;;;4991020;28;20444;-73
2022/09/25 04:16:06;;;;;;;2.77;2.57;;;16.90;59.70;;;;;;4989447;28;20465;-73
2022/09/25 04:18:36;;;;;;;3.10;2.17;;;16.90;59.60;;;;;;4990182;28;20445;-73
2022/09/25 04:21:07;;;;;;;3.27;3.00;;;16.90;59.70;;;;;;5008058;28;20935;-73
2022/09/25 04:23:37;;;;;;;3.50;2.97;;;16.80;59.70;;;;;;4981557;28;20465;-72
2022/09/25 04:26:07;;;;;;;6.33;3.10;;;16.90;60.10;;;;;;5000772;28;20472;-73
2022/09/25 04:28:36;;;;;;;2.77;2.57;;;16.80;60.30;;;;;;4990069;28;20440;-73
2022/09/25 04:31:05;;;;;;;3.60;2.50;;;16.90;60.30;;;;;;4989728;28;20530;-73
2022/09/25 04:33:47;;;;;;;3.47;2.97;;;16.90;60.10;;;;;;4981119;28;20500;-73
2022/09/25 04:36:17;;;;;;;2.87;2.67;;;16.90;60.00;;;;;;4982579;28;20511;-72
2022/09/25 04:38:48;;;;;;;2.90;2.70;;;16.80;60.10;;;;;;4986210;28;20537;-72
2022/09/25 04:41:18;;;;;;;2.60;2.20;;;16.80;59.80;;;;;;4986692;28;20500;-73
2022/09/25 04:43:47;;;;;;;3.10;2.80;;;16.80;59.90;;;;;;4966007;28;20464;-72
2022/09/25 04:46:17;;;;;;;3.07;2.87;;;16.80;59.70;;;;;;4990178;28;20452;-72
2022/09/25 04:48:50;;;;;;;2.83;2.57;;;16.80;60.10;;;;;;4991482;28;21000;-73
2022/09/25 04:51:18;;;;;;;2.90;2.70;;;16.80;59.90;;;;;;4978221;28;20813;-73
2022/09/25 04:53:48;;;;;;;2.67;2.47;;;16.80;59.90;;;;;;4990363;28;20433;-73
2022/09/25 04:56:16;;;;;;;3.00;2.57;;;16.80;59.90;;;;;;4984178;28;20500;-72
2022/09/25 04:58:46;;;;;;;2.63;2.43;;;16.80;59.80;;;;;;4987600;28;20446;-73
2022/09/25 05:01:16;;;;;;;2.73;2.40;;;16.80;59.90;;;;;;4986838;28;20555;-72
2022/09/25 05:03:47;;;;;;;3.73;2.83;;;16.80;60.00;;;;;;4971748;28;20473;-73
2022/09/25 05:06:16;;;;;;;4.80;2.70;;;16.80;60.10;;;;;;5005592;28;20457;-72
2022/09/25 05:08:49;;;;;;;3.50;3.20;;;16.80;60.20;;;;;;4978855;28;20456;-72
2022/09/25 05:11:19;;;;;;;2.97;2.30;;;16.80;59.80;;;;;;4986842;28;20542;-72
2022/09/25 05:13:50;;;;;;;3.00;2.33;;;16.80;59.80;;;;;;4988074;28;20457;-73
2022/09/25 05:16:19;;;;;;;3.60;2.60;;;16.80;59.70;;;;;;4987539;28;20453;-73
2022/09/25 05:18:48;;;;;;;3.73;2.57;;;16.80;59.70;;;;;;4987856;28;20694;-73
2022/09/25 05:21:17;;;;;;;2.50;2.10;;;16.80;59.70;;;;;;4990008;28;20448;-71
2022/09/25 05:23:45;;;;;;;2.60;2.23;;;16.80;59.80;;;;;;4992309;28;20468;-73
2022/09/25 05:26:15;;;;;;;3.50;2.47;;;16.80;59.60;;;;;;4993490;28;20507;-73
2022/09/25 05:28:43;;;;;;;2.93;2.53;;;16.80;59.70;;;;;;4992964;28;20649;-72
2022/09/25 05:31:12;;;;;;;3.77;2.27;;;16.80;59.70;;;;;;4990871;28;20487;-73
2022/09/25 05:33:42;;;;;;;5.47;2.60;;;16.80;59.70;;;;;;4990158;28;20524;-72
2022/09/25 05:36:11;;;;;;;2.70;2.30;;;16.80;59.60;;;;;;4990982;28;20448;-73
2022/09/25 05:38:40;;;;;;;2.73;2.50;;;16.80;59.70;;;;;;4996403;28;20936;-72
2022/09/25 05:41:10;;;;;;;3.40;2.20;;;16.80;59.70;;;;;;4976539;28;20439;-72
2022/09/25 05:43:42;;;;;;;2.67;2.47;;;16.80;59.60;;;;;;4991213;28;20832;-72
2022/09/25 05:46:11;;;;;;;2.37;2.03;;;16.80;59.70;;;;;;4968203;28;20465;-72
2022/09/25 05:48:39;;;;;;;2.63;2.43;;;16.80;59.60;;;;;;4991524;28;20561;-72
2022/09/25 05:51:08;;;;;;;2.40;2.20;;;16.80;59.60;;;;;;4987736;28;20867;-72
2022/09/25 05:53:36;;;;;;;2.50;2.03;;;16.80;59.60;;;;;;4990466;28;20445;-70
2022/09/25 05:56:06;;;;;;;2.53;2.33;;;16.80;59.70;;;;;;4992540;28;20463;-72
2022/09/25 05:58:35;;;;;;;2.50;2.30;;;16.80;59.60;;;;;;4990330;28;20449;-72
2022/09/25 06:01:08;;;;;;;2.70;2.17;;;16.80;59.70;;;;;;4999021;28;20500;-71
2022/09/25 06:03:36;;;;;;;2.43;2.23;;;16.80;59.70;;;;;;4989396;28;20465;-71
2022/09/25 06:06:05;;;;;;;2.10;2.00;;;16.80;59.80;;;;;;4989325;28;20540;-71
2022/09/25 06:08:35;;;;;;;2.73;2.53;;;16.80;59.70;;;;;;4990525;28;20543;-72
2022/09/25 06:11:06;;;;;;;3.10;2.57;;;16.80;59.60;;;;;;4981750;28;20442;-72
2022/09/25 06:13:35;;;;;;;2.70;2.07;;;16.70;59.70;;;;;;4982635;28;20440;-73
2022/09/25 06:16:17;;;;;;;3.47;2.47;;;16.70;59.60;;;;;;4991505;28;20461;-72
2022/09/25 06:18:47;;;;;;;2.77;2.50;;;16.70;59.60;;;;;;4998219;28;21040;-72
2022/09/25 06:21:15;;;;;;;2.47;2.27;;;16.70;59.50;;;;;;4964208;28;20429;-72
2022/09/25 06:23:45;;;;;;;5.80;2.63;;;16.70;59.50;;;;;;5000299;28;20551;-72
2022/09/25 06:26:14;;;;;;;2.60;2.40;;;16.70;59.40;;;;;;4991368;28;20995;-73
2022/09/25 06:28:42;;;;;;;2.43;2.23;;;16.70;59.40;;;;;;5004881;28;20484;-72
2022/09/25 06:31:12;;;;;;;2.40;2.20;;;16.70;59.40;;;;;;4999303;28;20442;-72
2022/09/25 06:33:40;;;;;;;2.83;2.37;;;16.70;59.40;;;;;;5003307;28;20425;-72
2022/09/25 06:36:09;;;;;;;2.40;2.07;;;16.70;59.70;;;;;;4983241;28;20449;-72
2022/09/25 06:38:37;;;;;;;2.03;1.83;;;16.70;59.60;;;;;;4993101;28;20488;-72
2022/09/25 06:41:09;;;;;;;2.50;2.30;;;16.70;59.40;;;;;;4995687;28;20438;-72
2022/09/25 06:43:38;;;;;;;2.53;2.33;;;16.70;59.50;;;;;;4983431;28;21015;-72
2022/09/25 06:46:06;;;;;;;2.60;2.00;;;16.70;59.50;;;;;;5005254;28;20563;-73
2022/09/25 06:48:36;;;;;;;2.73;2.10;;;16.70;59.40;;;;;;4992145;28;20495;-72
2022/09/25 06:51:07;;;;;;;2.40;2.20;;;16.70;59.40;;;;;;5009337;28;20801;-72
2022/09/25 06:53:36;;;;;;;2.30;2.10;;;16.70;59.50;;;;;;4989768;28;20449;-73
2022/09/25 06:56:07;;;;;;;2.13;2.00;;;16.70;59.50;;;;;;4985755;28;20615;-73
2022/09/25 06:58:35;;;;;;;4.20;2.10;;;16.70;59.40;;;;;;4989516;28;20434;-73
2022/09/25 07:01:09;;;;;;;7.33;2.00;;;16.70;62.80;;;;;;4989555;28;20443;-72
2022/09/25 07:03:44;;;;;;;5.77;3.37;;;16.80;63.70;;;;;;4989072;28;20815;-72
2022/09/25 07:06:15;;;;;;;4.33;1.90;;;16.70;64.90;;;;;;4984093;28;20523;-72
2022/09/25 07:08:46;;;;;;;5.40;1.70;;;16.60;66.20;;;;;;4980870;28;20665;-72
2022/09/25 07:11:19;;;;;;;2.50;1.90;;;16.60;66.10;;;;;;5002569;28;20429;-73
2022/09/25 07:13:53;;;;;;;3.10;1.83;;;16.60;65.20;;;;;;4992331;28;20433;-72
2022/09/25 07:16:24;;;;;;;3.67;1.80;;;16.60;65.10;;;;;;4989515;28;20465;-72
2022/09/25 07:18:59;;;;;;;6.80;1.97;;;16.60;64.50;;;;;;4987601;28;20465;-73
2022/09/25 07:21:29;;;;;;;2.90;1.40;;;16.60;64.20;;;;;;4981235;28;20448;-73
2022/09/25 07:23:58;;;;;;;7.97;2.70;;;16.60;63.90;;;;;;5009146;28;21030;-70
2022/09/25 07:26:28;;;;;;;4.50;2.10;;;16.60;65.20;;;;;;4991900;28;20492;-71
2022/09/25 07:28:59;;;;;;;3.87;2.03;;;16.50;66.00;;;;;;4979948;28;20438;-72
2022/09/25 07:31:29;;;;;;;5.70;2.13;;;16.50;65.50;;;;;;4988671;28;20452;-71
2022/09/25 07:34:04;;;;;;;4.07;1.70;;;16.50;65.30;;;;;;4991440;28;20512;-72
2022/09/25 07:36:33;;;;;;;5.33;1.90;;;16.60;64.80;;;;;;4984158;28;20449;-73
2022/09/25 07:39:03;;;;;;;4.53;1.97;;;16.50;64.20;;;;;;4987346;28;20504;-73
2022/09/25 07:41:31;;;;;;;4.90;1.60;;;16.60;64.00;;;;;;4983130;28;20465;-72
2022/09/25 07:44:00;;;;;;;3.10;1.60;;;16.60;63.80;;;;;;5002754;28;20519;-73
2022/09/25 07:46:50;;;;;;;2.77;1.60;;;16.60;63.70;;;;;;4982663;28;20532;-72
2022/09/25 07:49:19;;;;;;;5.33;1.40;;;16.60;63.40;;;;;;4991190;28;20441;-72
2022/09/25 07:51:48;;;;;;;3.17;1.30;;;16.60;63.10;;;;;;4990511;28;20448;-72
2022/09/25 07:54:17;;;;;;;1.50;0.97;;;16.60;63.10;;;;;;4983110;28;20471;-72
2022/09/25 07:56:45;;;;;;;5.13;1.17;;;16.60;62.90;;;;;;4991045;28;20457;-73
2022/09/25 07:59:14;;;;;;;3.93;1.40;;;16.70;62.80;;;;;;5001237;28;20536;-73
2022/09/25 08:01:42;;;;;;;1.43;1.10;;;16.70;62.60;;;;;;4982679;28;20441;-73
2022/09/25 08:04:16;;;;;;;1.40;1.27;;;16.70;62.40;;;;;;4983282;28;20562;-73
2022/09/25 08:06:46;;;;;;;2.73;1.37;;;16.70;62.30;;;;;;5007218;28;20464;-73
2022/09/25 08:09:15;;;;;;;1.47;1.37;;;16.70;62.20;;;;;;4991036;28;21102;-73
2022/09/25 08:11:44;;;;;;;3.40;1.40;;;16.70;62.20;;;;;;5000160;28;20437;-72
2022/09/25 08:14:14;;;;;;;2.93;1.70;;;16.70;63.40;;;;;;4998427;28;20484;-71
2022/09/25 08:16:43;;;;;;;2.37;1.60;;;16.70;62.10;;;;;;4987636;28;20456;-72
2022/09/25 08:19:12;;;;;;;1.93;1.37;;;16.70;61.90;;;;;;4985973;28;20561;-72
2022/09/25 08:22:09;;;;;;;2.60;1.60;;;16.70;61.80;;;;;;4966802;23;21156;-50
2022/09/25 08:24:39;;;;;;;2.90;1.40;;;16.70;61.80;;;;;;4971494;28;20486;-73
2022/09/25 08:27:07;;;;;;;1.73;1.10;;;16.70;61.50;;;;;;4972412;28;20492;-74
2022/09/25 08:29:36;;;;;;;2.70;1.40;;;16.80;61.60;;;;;;4967414;28;20977;-71
2022/09/25 08:32:04;;;;;;;1.80;1.30;;;16.70;61.50;;;;;;4969408;28;20500;-72
2022/09/25 08:34:33;;;;;;;2.13;1.40;;;16.80;61.40;;;;;;4972816;28;20496;-74
2022/09/25 08:37:09;;;;;;;1.20;0.90;;;16.70;61.40;;;;;;4987772;28;20511;-71
2022/09/25 08:39:39;;;;;;;2.00;1.27;;;16.80;61.40;;;;;;4961154;28;21273;-73
2022/09/25 08:42:18;;;;;;;1.77;1.30;;;16.80;61.20;;;;;;4965297;28;20446;-74
2022/09/25 08:49:00;;;;;;;2.20;1.40;;;16.80;61.00;;;;;;4987069;28;20485;-71
2022/09/25 08:50:38;;;;;;;2.40;1.10;;;16.70;60.80;;;;;;4963551;28;20473;-73
2022/09/25 08:53:25;;;;;;;2.03;1.27;;;16.70;60.80;;;;;;4954032;28;20561;-72
2022/09/25 08:56:14;;;;;;;1.87;1.33;;;16.80;60.80;;;;;;4976952;28;20532;-73
2022/09/25 08:58:46;;;;;;;1.83;1.30;;;16.70;60.70;;;;;;4973769;28;20460;-73
2022/09/25 09:01:18;;;;;;;1.10;0.90;;;16.80;60.90;;;;;;4979211;28;21032;-72
2022/09/25 09:03:52;;;;;;;2.20;1.20;;;16.80;60.80;;;;;;4973555;28;20443;-72
2022/09/25 09:06:24;;;;;;;1.67;1.10;;;16.80;60.80;;;;;;4964391;28;20920;-73
2022/09/25 09:08:58;;;;;;;5.13;1.47;;;16.80;60.80;;;;;;4962385;28;20909;-73
2022/09/25 09:11:33;;;;;;;3.20;1.10;;;16.80;60.80;;;;;;4970909;28;20445;-71
2022/09/25 09:14:05;;;;;;;1.57;1.03;;;16.80;60.80;;;;;;4965285;28;20779;-72
2022/09/25 09:16:41;;;;;;;2.97;0.73;;;16.80;60.80;;;;;;4954042;28;20462;-72
2022/09/25 09:19:11;;;;;;;2.40;1.20;;;16.80;60.80;;;;;;4982809;28;20508;-71
2022/09/25 09:21:44;;;;;;;1.50;1.27;;;16.80;60.80;;;;;;4963752;28;20486;-73
2022/09/25 09:24:19;;;;;;;1.70;0.90;;;16.80;60.80;;;;;;4969232;28;20538;-72
2022/09/25 09:27:23;;;;;;;3.03;1.20;;;16.80;60.80;;;;;;4962359;28;20473;-73
2022/09/25 09:30:07;;;;;;;2.00;1.13;;;16.80;60.80;;;;;;4955245;28;20469;-71
2022/09/25 09:32:46;;;;;;;2.57;1.00;;;16.80;60.80;;;;;;4970133;28;20441;-73
2022/09/25 09:35:25;;;;;;;1.10;0.90;;;16.80;60.80;;;;;;4961401;28;20474;-72
2022/09/25 09:38:14;;;;;;;1.30;0.83;;;16.80;60.80;;;;;;4975202;28;20443;-71
2022/09/25 09:40:58;;;;;;;1.17;1.00;;;16.80;60.80;;;;;;4968537;28;20500;-72
2022/09/25 09:43:42;;;;;;;1.50;1.00;;;16.80;60.80;;;;;;4962348;28;20956;-71
2022/09/25 09:46:18;;;;;;;1.40;1.13;;;16.80;60.80;;;;;;4964690;28;20523;-71
2022/09/25 09:48:58;;;;;;;3.27;1.00;;;16.80;62.10;;;;;;4969305;28;21001;-71
2022/09/25 09:51:32;;;;;;;2.47;1.80;;;16.90;60.90;;;;;;4984284;28;20438;-72
2022/09/25 09:54:05;;;;;;;2.03;0.97;;;16.90;60.90;;;;;;4978702;28;20504;-72
2022/09/25 09:56:35;;;;;;;1.30;1.07;;;16.90;60.90;;;;;;4972043;28;20524;-73
2022/09/25 09:59:14;;;;;;;1.40;0.80;;;16.90;60.90;;;;;;4974129;28;20525;-72
2022/09/25 10:01:45;;;;;;;2.10;0.93;;;16.90;60.90;;;;;;4958278;28;20953;-72
2022/09/25 10:04:19;;;;;;;2.50;1.33;;;16.90;60.90;;;;;;4969769;28;20858;-71
2022/09/25 10:06:53;;;;;;;1.20;0.90;;;16.90;60.90;;;;;;4975508;28;20469;-73
2022/09/25 10:09:24;;;;;;;1.00;0.83;;;16.90;60.90;;;;;;4972541;28;20553;-72
2022/09/25 10:12:00;;;;;;;1.17;1.00;;;16.90;60.90;;;;;;4986639;28;20439;-73
2022/09/25 10:14:35;;;;;;;2.53;1.00;;;16.90;60.80;;;;;;4976020;28;20461;-73
2022/09/25 10:17:06;;;;;;;1.20;0.90;;;16.90;62.00;;;;;;4965377;28;20465;-72
2022/09/25 10:19:45;;;;;;;1.17;0.80;;;16.90;60.80;;;;;;4980305;28;20451;-73
2022/09/25 10:22:17;;;;;;;0.93;0.83;;;16.90;60.90;;;;;;4961608;28;20534;-73
2022/09/25 10:24:50;;;;;;;1.70;0.80;;;16.90;60.80;;;;;;4960082;28;20470;-72
2022/09/25 10:27:29;;;;;;;1.03;0.90;;;16.90;60.80;;;;;;4977991;28;20469;-73
2022/09/25 10:30:15;;;;;;;1.00;0.90;;;16.90;60.80;;;;;;4957208;28;20489;-72
2022/09/25 10:32:46;;;;;;;1.27;0.90;;;16.90;60.70;;;;;;4963796;28;20453;-73
2022/09/25 10:35:20;;;;;;;2.23;1.23;;;16.90;60.90;;;;;;4969484;28;20482;-73
2022/09/25 10:37:52;;;;;;;1.23;0.73;;;16.90;60.70;;;;;;4986788;28;20960;-73
2022/09/25 10:40:25;;;;;;;1.07;0.77;;;16.80;60.60;;;;;;4982335;28;20553;-72
2022/09/25 10:43:16;;;;;;;2.00;0.77;;;16.80;60.70;;;;;;4953145;28;20475;-72
2022/09/25 10:45:48;;;;;;;1.30;0.70;;;16.80;60.70;;;;;;4958198;28;20481;-73
2022/09/25 10:51:19;;;;;;;1.37;0.80;;;16.80;60.70;;;;;;4964193;28;20453;-72
2022/09/25 10:53:50;;;;;;;1.10;0.90;;;16.80;60.70;;;;;;4965500;28;21023;-72
2022/09/25 10:56:23;;;;;;;1.40;0.83;;;16.80;60.60;;;;;;4967751;28;20497;-68
2022/09/25 10:58:55;;;;;;;2.60;0.93;;;16.80;60.70;;;;;;4959299;28;20450;-67
2022/09/25 11:01:34;;;;;;;1.13;0.70;;;16.80;60.60;;;;;;4966662;28;20533;-68
2022/09/25 11:04:08;;;;;;;1.03;0.80;;;16.80;60.50;;;;;;4960837;28;20493;-67
2022/09/25 11:06:43;;;;;;;0.90;0.70;;;16.80;60.40;;;;;;4962134;28;20458;-68
2022/09/25 11:09:15;;;;;;;2.30;0.90;;;16.80;60.50;;;;;;4971324;28;21631;-67
2022/09/25 11:11:48;;;;;;;1.10;0.70;;;16.80;60.30;;;;;;4970043;28;20448;-67
2022/09/25 11:14:31;;;;;;;1.80;1.17;;;16.80;60.40;;;;;;4961057;28;20434;-65
2022/09/25 11:17:04;;;;;;;0.70;0.70;;;16.80;60.30;;;;;;4946992;28;20843;-68
2022/09/25 11:19:35;;;;;;;1.23;0.80;;;16.80;60.30;;;;;;4965910;28;20485;-68
2022/09/25 11:22:16;;;;;;;1.10;0.70;;;16.80;60.30;;;;;;4976508;28;20946;-67
2022/09/25 11:24:53;;;;;;;1.23;1.00;;;16.80;60.20;;;;;;4963717;28;20446;-73
2022/09/25 11:27:34;;;;;;;0.77;0.77;;;16.80;60.30;;;;;;4970928;28;20549;-72
2022/09/25 11:30:06;;;;;;;0.90;0.70;;;16.80;60.10;;;;;;4983029;28;20477;-72
2022/09/25 11:32:49;;;;;;;1.20;0.83;;;16.80;60.20;;;;;;4978097;28;20450;-73
2022/09/25 11:35:46;;;;;;;1.20;0.70;;;16.80;60.20;;;;;;4952357;28;20574;-72
2022/09/25 11:41:21;;;;;;;0.83;0.60;;;16.80;60.20;;;;;;4980413;28;21041;-72
2022/09/25 11:44:07;;;;;;;1.77;0.80;;;16.80;60.00;;;;;;4956373;28;20433;-73
2022/09/25 11:46:45;;;;;;;1.67;1.17;;;16.80;60.20;;;;;;4959152;28;20797;-73
2022/09/25 11:49:21;;;;;;;1.40;0.97;;;16.80;60.10;;;;;;4971475;28;20782;-73
2022/09/25 11:52:22;;;;;;;1.20;0.83;;;16.80;60.00;;;;;;4969231;28;21005;-67
2022/09/25 11:55:27;;;;;;;1.53;0.90;;;16.80;60.00;;;;;;4972566;28;20881;-67
2022/09/25 11:58:06;;;;;;;1.57;0.70;;;16.80;60.00;;;;;;4981320;28;20438;-67
2022/09/25 12:00:43;;;;;;;0.73;0.53;;;16.80;59.90;;;;;;4941960;28;20692;-67
2022/09/25 12:03:34;;;;;;;0.97;0.63;;;16.80;59.90;;;;;;4977188;28;20937;-67
2022/09/25 12:06:23;;;;;;;1.43;0.70;;;16.80;59.90;;;;;;4985432;28;20479;-73
2022/09/25 12:09:11;;;;;;;1.17;0.70;;;16.80;60.00;;;;;;4989390;28;20817;-72
2022/09/25 12:11:50;;;;;;;1.67;0.83;;;16.80;60.00;;;;;;4974783;28;20449;-73
2022/09/25 12:14:37;;;;;;;1.13;0.97;;;16.80;59.90;;;;;;4959597;28;20478;-73
2022/09/25 12:17:24;;;;;;;1.43;0.70;;;16.80;59.90;;;;;;4963950;28;20484;-72
2022/09/25 12:38:12;;;;;;;1.13;0.70;;;16.80;59.90;;;;;;4973526;28;20438;-66
2022/09/25 12:49:57;;;;;;;1.07;0.70;;;16.80;59.70;;;;;;4988051;28;20461;-66
2022/09/25 12:53:23;;;;;;;2.20;0.83;;;16.80;59.80;;;;;;4966352;28;20533;-67
2022/09/25 12:56:14;;;;;;;1.00;0.63;;;16.80;59.70;;;;;;4976660;28;20481;-66
2022/09/25 12:59:02;;;;;;;1.23;0.63;;;16.80;59.70;;;;;;4978795;28;20514;-66
2022/09/25 13:01:44;;;;;;;5.97;0.80;;;16.80;59.30;;;;;;4955440;28;20480;-65
2022/09/25 13:04:32;;;;;;;6.00;1.00;;;16.80;58.90;;;;;;4951441;28;20509;-64
2022/09/25 13:07:14;;;;;;;1.53;0.77;;;16.80;58.80;;;;;;4971835;28;21468;-68
2022/09/25 13:09:48;;;;;;;1.93;0.80;;;16.80;59.10;;;;;;4968468;28;20565;-68
2022/09/25 13:12:32;;;;;;;2.20;1.20;;;16.90;59.20;;;;;;4971552;28;20442;-72
2022/09/25 13:15:05;;;;;;;3.67;1.37;;;16.90;58.40;;;;;;4965057;28;20471;-72
2022/09/25 13:17:34;;;;;;;1.27;1.07;;;16.90;58.60;;;;;;4982781;28;20937;-72
2022/09/25 13:20:42;;;;;;;2.00;0.87;;;16.90;58.60;;;;;;4985839;28;20470;-73
2022/09/25 13:23:13;;;;;;;2.83;1.00;;;16.90;58.90;;;;;;4983522;28;20456;-72
2022/09/25 13:25:59;;;;;;;1.57;0.80;;;16.90;58.90;;;;;;4977588;28;20470;-72
2022/09/25 13:28:32;;;;;;;1.27;1.00;;;16.90;58.90;;;;;;4967663;28;20478;-72
2022/09/25 13:31:05;;;;;;;1.57;0.70;;;16.90;59.00;;;;;;4983218;28;20461;-72
2022/09/25 13:33:49;;;;;;;1.87;0.93;;;16.90;59.10;;;;;;4966775;28;20445;-72
2022/09/25 13:36:38;;;;;;;3.30;1.00;;;16.90;58.60;;;;;;4965604;28;20480;-72
2022/09/25 13:42:13;;;;;;;1.43;1.20;;;16.90;58.70;;;;;;4975869;28;20442;-72
2022/09/25 13:45:01;;;;;;;2.67;1.07;;;16.90;58.80;;;;;;4987332;28;20849;-72
2022/09/25 13:48:02;;;;;;;1.57;0.80;;;16.90;58.90;;;;;;4985859;28;20737;-72
2022/09/25 13:50:46;;;;;;;1.87;0.83;;;16.90;58.90;;;;;;4987573;28;20988;-72
2022/09/25 13:53:21;;;;;;;1.10;0.80;;;16.90;59.00;;;;;;4985477;28;20505;-72
2022/09/25 13:56:26;;;;;;;1.17;0.80;;;16.90;59.00;;;;;;4961072;28;20458;-72
2022/09/25 13:59:20;;;;;;;1.77;0.70;;;16.90;59.00;;;;;;4974806;28;20438;-72
2022/09/25 14:01:55;;;;;;;1.43;1.20;;;16.90;59.00;;;;;;4950455;28;20489;-73
2022/09/25 14:04:30;;;;;;;1.33;0.90;;;16.90;59.00;;;;;;4986428;28;20564;-73
2022/09/25 14:07:19;;;;;;;2.17;0.83;;;16.90;59.10;;;;;;4973542;28;20453;-73
2022/09/25 14:09:52;;;;;;;0.80;0.70;;;16.90;59.00;;;;;;4961469;28;20459;-72